createdAt,value
2023-04-02T00:01:44.041Z,0.30
2023-04-02T00:04:45.778Z,0.40
2023-04-02T00:07:50.612Z,0.40
2023-04-02T00:10:54.793Z,0.17
2023-04-02T00:14:00.499Z,0.22
2023-04-02T00:17:05.560Z,0.32
2023-04-02T00:20:09.064Z,0.30
2023-04-02T00:23:13.648Z,0.40
2023-04-02T00:26:31.241Z,0.30
2023-04-02T00:29:33.212Z,0.30
2023-04-02T00:32:39.433Z,0.30
2023-04-02T00:35:41.804Z,0.30
2023-04-02T00:38:46.704Z,0.40
2023-04-02T00:42:05.240Z,0.22
2023-04-02T00:45:18.736Z,0.38
2023-04-02T00:48:31.630Z,0.50
2023-04-02T00:51:38.521Z,0.35
2023-04-02T00:54:45.295Z,0.20
2023-04-02T00:57:49.647Z,0.30
2023-04-02T01:00:52.048Z,0.32
2023-04-02T01:03:58.134Z,0.30
2023-04-02T01:07:05.122Z,0.30
2023-04-02T01:10:30.637Z,0.50
2023-04-02T01:13:39.821Z,0.45
2023-04-02T01:16:53.943Z,0.32
2023-04-02T01:20:23.938Z,0.28
2023-04-02T01:23:30.995Z,0.70
2023-04-02T01:26:54.662Z,0.70
2023-04-02T01:30:00.519Z,0.30
2023-04-02T01:33:03.541Z,0.38
2023-04-02T01:36:12.003Z,0.40
2023-04-02T01:39:30.074Z,0.35
2023-04-02T01:42:37.849Z,0.30
2023-04-02T01:45:41.267Z,0.50
2023-04-02T01:48:43.591Z,0.60
2023-04-02T01:51:51.254Z,0.50
2023-04-02T01:54:57.613Z,0.40
2023-04-02T01:58:01.530Z,0.75
2023-04-02T02:01:09.452Z,0.40
2023-04-02T02:04:14.663Z,0.40
2023-04-02T02:07:19.240Z,0.68
2023-04-02T02:10:27.246Z,0.40
2023-04-02T02:13:30.579Z,0.20
2023-04-02T02:16:41.974Z,0.32
2023-04-02T02:19:46.507Z,0.60
2023-04-02T02:22:51.438Z,0.30
2023-04-02T02:28:58.267Z,0.43
2023-04-02T02:32:04.298Z,0.30
2023-04-02T02:35:13.042Z,0.60
2023-04-02T02:38:31.989Z,0.30
2023-04-02T02:41:42.917Z,0.50
2023-04-02T02:44:49.148Z,0.43
2023-04-02T02:47:54.976Z,0.60
2023-04-02T02:50:57.888Z,0.45
2023-04-02T02:54:04.263Z,0.30
2023-04-02T02:57:10.258Z,0.50
2023-04-02T03:00:17.721Z,0.63
2023-04-02T03:03:24.636Z,0.30
2023-04-02T03:06:31.451Z,0.50
2023-04-02T03:09:43.233Z,0.50
2023-04-02T03:12:51.624Z,0.55
2023-04-02T03:16:00.409Z,0.80
2023-04-02T03:19:10.984Z,0.57
2023-04-02T03:22:17.200Z,0.60
2023-04-02T03:25:34.008Z,0.80
2023-04-02T03:28:43.699Z,0.70
2023-04-02T03:31:48.296Z,0.77
2023-04-02T03:34:55.352Z,0.60
2023-04-02T03:38:04.449Z,0.70
2023-04-02T03:41:13.458Z,0.90
2023-04-02T03:44:23.792Z,0.70
2023-04-02T03:47:33.441Z,0.60
2023-04-02T03:50:43.032Z,0.98
2023-04-02T03:53:46.650Z,0.70
2023-04-02T03:56:50.024Z,1.17
2023-04-02T04:00:05.573Z,0.93
2023-04-02T04:03:19.927Z,0.70
2023-04-02T04:06:29.491Z,0.82
2023-04-02T04:09:38.520Z,1.08
2023-04-02T04:12:44.520Z,1.00
2023-04-02T04:15:54.963Z,0.90
2023-04-02T04:19:04.953Z,0.82
2023-04-02T04:22:17.849Z,1.02
2023-04-02T04:25:29.541Z,1.00
2023-04-02T04:28:42.908Z,1.42
2023-04-02T04:31:47.194Z,1.10
2023-04-02T04:34:53.562Z,1.10
2023-04-02T04:38:07.784Z,0.93
2023-04-02T04:41:13.965Z,0.90
2023-04-02T04:44:21.940Z,0.90
2023-04-02T04:47:32.176Z,1.08
2023-04-02T04:50:38.985Z,1.02
2023-04-02T04:53:48.543Z,1.00
2023-04-02T04:56:56.581Z,0.80
2023-04-02T05:00:07.561Z,1.00
2023-04-02T05:03:20.956Z,1.50
2023-04-02T05:06:35.449Z,0.95
2023-04-02T05:09:49.869Z,0.85
2023-04-02T05:12:56.535Z,1.00
2023-04-02T05:16:10.120Z,0.95
2023-04-02T05:19:16.800Z,0.98
2023-04-02T05:22:27.946Z,1.20
2023-04-02T05:25:33.075Z,0.95
2023-04-02T05:28:44.922Z,1.05
2023-04-02T05:31:54.736Z,1.15
2023-04-02T05:34:58.460Z,1.27
2023-04-02T05:38:01.973Z,1.33
2023-04-02T05:41:15.864Z,1.08
2023-04-02T05:44:22.554Z,1.05
2023-04-02T05:47:31.258Z,1.10
2023-04-02T05:50:37.528Z,1.05
2023-04-02T05:53:47.601Z,1.40
2023-04-02T05:56:56.277Z,1.17
2023-04-02T06:00:06.241Z,1.60
2023-04-02T06:03:24.081Z,1.13
2023-04-02T06:06:47.586Z,1.15
2023-04-02T06:09:57.223Z,1.33
2023-04-02T06:13:04.509Z,1.33
2023-04-02T06:16:14.667Z,1.33
2023-04-02T06:19:22.618Z,1.38
2023-04-02T06:22:35.687Z,1.20
2023-04-02T06:25:43.343Z,1.77
2023-04-02T06:28:50.027Z,1.52
2023-04-02T06:31:56.839Z,1.23
2023-04-02T06:35:00.301Z,1.17
2023-04-02T06:38:06.225Z,1.60
2023-04-02T06:41:16.545Z,1.73
2023-04-02T06:44:38.185Z,1.48
2023-04-02T06:48:05.618Z,0.90
2023-04-02T06:51:20.662Z,1.40
2023-04-02T06:54:22.773Z,1.20
2023-04-02T06:57:32.763Z,1.20
2023-04-02T07:00:37.603Z,1.40
2023-04-02T07:03:42.049Z,1.42
2023-04-02T07:06:54.084Z,0.90
2023-04-02T07:13:02.500Z,0.93
2023-04-02T07:16:12.044Z,1.38
2023-04-02T07:19:19.417Z,1.20
2023-04-02T07:22:23.158Z,1.30
2023-04-02T07:25:29.469Z,1.40
2023-04-02T07:28:31.760Z,1.17
2023-04-02T07:31:35.253Z,1.23
2023-04-02T07:34:38.340Z,1.15
2023-04-02T07:37:40.732Z,1.08
2023-04-02T07:40:42.678Z,1.13
2023-04-02T07:43:45.987Z,1.00
2023-04-02T07:46:49.076Z,0.90
2023-04-02T07:49:50.853Z,0.80
2023-04-02T07:52:52.699Z,0.90
2023-04-02T07:55:54.596Z,0.88
2023-04-02T07:58:56.450Z,1.02
2023-04-02T08:01:59.879Z,1.08
2023-04-02T08:05:01.684Z,2.35
2023-04-02T08:08:03.462Z,1.00
2023-04-02T08:11:06.272Z,1.00
2023-04-02T08:14:08.120Z,1.10
2023-04-02T08:17:11.458Z,1.25
2023-04-02T08:20:15.712Z,1.00
2023-04-02T08:23:18.078Z,1.27
2023-04-02T08:26:19.901Z,1.05
2023-04-02T08:29:23.308Z,1.02
2023-04-02T08:32:28.999Z,1.08
2023-04-02T08:35:31.521Z,1.10
2023-04-02T08:38:53.052Z,1.05
2023-04-02T08:42:01.581Z,1.17
2023-04-02T08:45:25.054Z,1.67
2023-04-02T08:48:31.287Z,0.85
2023-04-02T08:51:36.799Z,1.50
2023-04-02T08:54:38.547Z,1.65
2023-04-02T08:57:47.639Z,1.50
2023-04-02T09:00:53.906Z,1.30
2023-04-02T09:03:59.056Z,1.17
2023-04-02T09:07:01.055Z,1.45
2023-04-02T09:10:04.332Z,1.30
2023-04-02T09:13:13.860Z,1.50
2023-04-02T09:16:21.182Z,1.67
2023-04-02T09:19:32.206Z,1.25
2023-04-02T09:22:35.005Z,1.45
2023-04-02T09:25:48.500Z,1.63
2023-04-02T09:29:15.900Z,1.70
2023-04-02T09:32:35.233Z,1.15
2023-04-02T09:35:57.629Z,1.45
2023-04-02T09:39:06.588Z,1.60
2023-04-02T09:42:28.360Z,1.55
2023-04-02T09:45:30.490Z,1.52
2023-04-02T09:48:35.056Z,1.10
2023-04-02T09:51:38.316Z,0.60
2023-04-02T09:54:42.935Z,0.20
2023-04-02T09:57:46.697Z,0.10
2023-04-02T10:00:53.213Z,0.00
2023-04-02T10:03:55.968Z,0.00
2023-04-02T10:06:59.029Z,0.00
2023-04-02T10:10:02.687Z,0.00
2023-04-02T10:13:28.698Z,0.00
2023-04-02T10:16:35.517Z,0.05
2023-04-02T10:19:40.750Z,0.00
2023-04-02T10:22:44.752Z,0.00
2023-04-02T10:25:53.856Z,0.00
2023-04-02T10:29:08.120Z,0.00
2023-04-02T10:32:16.456Z,0.00
2023-04-02T10:35:32.898Z,0.00
2023-04-02T10:38:43.083Z,0.00
2023-04-02T10:41:53.174Z,0.03
2023-04-02T10:44:59.812Z,0.15
2023-04-02T10:48:14.406Z,0.10
2023-04-02T10:51:28.308Z,0.00
2023-04-02T10:54:43.353Z,0.10
2023-04-02T10:57:46.428Z,0.00
2023-04-02T11:00:52.205Z,0.13
2023-04-02T11:04:00.140Z,0.00
2023-04-02T11:07:13.674Z,0.00
2023-04-02T11:10:20.070Z,0.10
2023-04-02T11:13:26.156Z,0.43
2023-04-02T11:16:28.750Z,0.13
2023-04-02T11:19:31.822Z,0.30
2023-04-02T11:22:33.658Z,0.10
2023-04-02T11:25:37.150Z,0.00
2023-04-02T11:28:40.163Z,0.00
2023-04-02T11:31:43.661Z,0.00
2023-04-02T11:35:06.662Z,0.00
2023-04-02T11:38:42.858Z,0.00
2023-04-02T11:42:21.776Z,0.00
2023-04-02T11:45:53.599Z,0.00
2023-04-02T11:49:34.723Z,0.10
2023-04-02T11:52:51.348Z,0.22
2023-04-02T11:56:08.932Z,0.00
2023-04-02T11:59:19.113Z,0.10
2023-04-02T12:02:27.169Z,0.00
2023-04-02T12:05:37.592Z,0.00
2023-04-02T12:08:57.684Z,0.10
2023-04-02T12:12:16.458Z,0.00
2023-04-02T12:15:44.110Z,0.00
2023-04-02T12:18:48.378Z,0.00
2023-04-02T12:21:53.012Z,0.00
2023-04-02T12:28:06.420Z,0.17
2023-04-02T12:31:14.244Z,0.10
2023-04-02T12:34:18.024Z,0.00
2023-04-02T12:37:22.744Z,0.08
2023-04-02T12:40:27.113Z,0.10
2023-04-02T12:43:31.926Z,0.10
2023-04-02T12:46:35.505Z,0.10
2023-04-02T12:49:40.204Z,0.13
2023-04-02T12:52:46.369Z,0.10
2023-04-02T12:55:52.185Z,0.03
2023-04-02T12:58:55.775Z,0.08
2023-04-02T13:01:59.444Z,0.10
2023-04-02T13:05:03.214Z,0.10
2023-04-02T13:08:06.419Z,0.05
2023-04-02T13:11:09.487Z,0.20
2023-04-02T13:14:18.480Z,0.10
2023-04-02T13:17:42.471Z,0.10
2023-04-02T13:20:56.283Z,0.20
2023-04-02T13:23:58.074Z,0.00
2023-04-02T13:27:02.786Z,0.10
2023-04-02T13:33:10.321Z,0.00
2023-04-02T13:36:14.192Z,0.10
2023-04-02T13:39:16.644Z,0.10
2023-04-02T13:42:20.500Z,0.20
2023-04-02T13:45:25.864Z,0.25
2023-04-02T13:48:34.591Z,0.40
2023-04-02T13:51:38.220Z,0.30
2023-04-02T13:54:44.571Z,0.25
2023-04-02T13:57:48.454Z,0.40
2023-04-02T14:00:50.502Z,0.30
2023-04-02T14:03:54.346Z,0.30
2023-04-02T14:07:20.064Z,0.20
2023-04-02T14:10:32.774Z,0.30
2023-04-02T14:13:56.389Z,0.20
2023-04-02T14:17:09.750Z,0.20
2023-04-02T14:20:25.934Z,0.35
2023-04-02T14:23:43.842Z,0.50
2023-04-02T14:27:04.132Z,0.40
2023-04-02T14:30:17.281Z,0.30
2023-04-02T14:33:28.763Z,0.40
2023-04-02T14:36:39.351Z,0.43
2023-04-02T14:39:50.593Z,0.30
2023-04-02T14:42:57.588Z,0.30
2023-04-02T14:46:03.082Z,0.57
2023-04-02T14:49:16.254Z,0.52
2023-04-02T14:52:23.109Z,0.40
2023-04-02T14:55:31.219Z,0.28
2023-04-02T14:58:35.923Z,0.40
2023-04-02T15:01:47.196Z,0.70
2023-04-02T15:04:54.158Z,0.50
2023-04-02T15:08:01.635Z,0.50
2023-04-02T15:11:08.414Z,0.63
2023-04-02T15:14:16.229Z,0.80
2023-04-02T15:17:20.520Z,0.20
2023-04-02T15:20:22.375Z,0.63
2023-04-02T15:23:41.751Z,0.88
2023-04-02T15:26:52.130Z,0.90
2023-04-02T15:30:02.066Z,0.82
2023-04-02T15:33:33.054Z,1.00
2023-04-02T15:36:54.149Z,0.70
2023-04-02T15:40:17.569Z,0.43
2023-04-02T15:43:27.461Z,0.73
2023-04-02T15:46:38.724Z,0.60
2023-04-02T15:49:46.543Z,0.65
2023-04-02T15:52:59.309Z,0.93
2023-04-02T15:56:19.262Z,1.02
2023-04-02T15:59:46.077Z,0.80
2023-04-02T16:03:17.352Z,1.00
2023-04-02T16:06:34.181Z,1.38
2023-04-02T16:09:48.281Z,1.50
2023-04-02T16:12:52.790Z,1.10
2023-04-02T16:16:05.684Z,1.10
2023-04-02T16:19:15.875Z,2.03
2023-04-02T16:22:24.732Z,1.15
2023-04-02T16:25:31.479Z,1.77
2023-04-02T16:28:40.010Z,1.30
2023-04-02T16:31:50.376Z,1.80
2023-04-02T16:35:15.007Z,1.67
2023-04-02T16:38:42.551Z,1.73
2023-04-02T16:41:56.622Z,0.90
2023-04-02T16:45:11.808Z,1.13
2023-04-02T16:48:24.294Z,1.40
2023-04-02T16:51:32.902Z,1.83
2023-04-02T16:54:46.400Z,1.48
2023-04-02T16:57:54.369Z,1.55
2023-04-02T17:01:00.726Z,1.20
2023-04-02T17:04:22.238Z,0.65
2023-04-02T17:07:33.067Z,1.90
2023-04-02T17:10:47.098Z,1.70
2023-04-02T17:14:05.727Z,0.70
2023-04-02T17:17:12.221Z,1.83
2023-04-02T17:20:18.969Z,0.90
2023-04-02T17:23:21.050Z,0.35
2023-04-02T17:26:27.634Z,0.70
2023-04-02T17:29:35.244Z,0.40
2023-04-02T17:32:37.181Z,1.10
2023-04-02T17:35:51.198Z,1.10
2023-04-02T17:39:03.735Z,0.52
2023-04-02T17:42:15.859Z,1.48
2023-04-02T17:45:22.860Z,0.98
2023-04-02T17:48:32.974Z,0.90
2023-04-02T17:51:42.328Z,0.22
2023-04-02T17:54:56.150Z,0.55
2023-04-02T17:58:09.566Z,0.88
2023-04-02T18:01:20.504Z,0.90
2023-04-02T18:04:37.059Z,0.82
2023-04-02T18:07:46.817Z,0.60
2023-04-02T18:11:01.947Z,1.10
2023-04-02T18:14:24.273Z,0.60
2023-04-02T18:17:34.848Z,0.22
2023-04-02T18:20:42.832Z,1.05
2023-04-02T18:23:57.284Z,0.98
2023-04-02T18:27:10.205Z,0.55
2023-04-02T18:30:23.701Z,1.25
2023-04-02T18:33:49.554Z,1.98
2023-04-02T18:37:03.180Z,1.30
2023-04-02T18:40:22.070Z,0.75
2023-04-02T18:43:32.304Z,0.85
2023-04-02T18:46:44.162Z,0.77
2023-04-02T18:49:52.050Z,0.85
2023-04-02T18:52:53.986Z,0.70
2023-04-02T18:55:58.800Z,0.90
2023-04-02T18:59:14.458Z,1.00
2023-04-02T19:02:32.063Z,0.63
2023-04-02T19:05:44.703Z,0.40
2023-04-02T19:08:51.089Z,0.93
2023-04-02T19:11:55.492Z,0.70
2023-04-02T19:15:00.277Z,0.63
2023-04-02T19:18:13.638Z,0.90
2023-04-02T19:21:23.631Z,0.80
2023-04-02T19:24:39.917Z,0.93
2023-04-02T19:27:58.540Z,0.75
2023-04-02T19:31:32.132Z,0.40
2023-04-02T19:34:39.940Z,0.70
2023-04-02T19:37:51.728Z,0.47
2023-04-02T19:40:58.632Z,0.10
2023-04-02T19:44:01.881Z,0.60
2023-04-02T19:47:05.186Z,0.70
2023-04-02T19:50:09.785Z,0.68
2023-04-02T19:53:11.789Z,0.60
2023-04-02T19:56:13.861Z,0.40
2023-04-02T19:59:18.524Z,0.70
2023-04-02T20:05:24.123Z,0.52
2023-04-02T20:08:26.201Z,0.77
2023-04-02T20:11:28.869Z,0.88
2023-04-02T20:14:30.783Z,0.90
2023-04-02T20:17:34.806Z,0.60
2023-04-02T20:20:39.297Z,0.70
2023-04-02T20:23:41.388Z,0.77
2023-04-02T20:26:43.266Z,0.82
2023-04-02T20:29:45.099Z,0.95
2023-04-02T20:32:47.187Z,0.95
2023-04-02T20:36:03.112Z,0.80
2023-04-02T20:39:07.879Z,0.60
2023-04-02T20:42:09.764Z,0.80
2023-04-02T20:45:11.714Z,0.70
2023-04-02T20:48:13.447Z,0.57
2023-04-02T20:51:16.770Z,0.85
2023-04-02T20:54:20.549Z,0.68
2023-04-02T20:57:22.976Z,0.63
2023-04-02T21:00:24.873Z,0.73
2023-04-02T21:03:26.587Z,0.80
2023-04-02T21:06:31.470Z,0.73
2023-04-02T21:09:33.283Z,1.00
2023-04-02T21:12:35.641Z,0.90
2023-04-02T21:15:42.856Z,0.73
2023-04-02T21:18:46.946Z,1.13
2023-04-02T21:21:50.065Z,0.85
2023-04-02T21:24:51.785Z,0.63
2023-04-02T21:27:53.619Z,0.90
2023-04-02T21:31:02.750Z,0.80
2023-04-02T21:34:06.066Z,0.80
2023-04-02T21:37:09.244Z,0.60
2023-04-02T21:40:11.948Z,1.13
2023-04-02T21:43:14.242Z,0.80
2023-04-02T21:46:18.687Z,0.95
2023-04-02T21:49:23.221Z,0.82
2023-04-02T21:52:27.284Z,0.70
2023-04-02T21:55:31.093Z,0.70
2023-04-02T21:58:33.344Z,1.25
2023-04-02T22:01:37.745Z,1.00
2023-04-02T22:04:40.922Z,0.90
2023-04-02T22:07:44.122Z,1.08
2023-04-02T22:10:46.467Z,1.02
2023-04-02T22:13:49.578Z,0.88
2023-04-02T22:16:52.295Z,0.57
2023-04-02T22:19:54.116Z,0.90
2023-04-02T22:22:57.291Z,1.70
2023-04-02T22:26:00.856Z,1.30
2023-04-02T22:29:04.005Z,0.50
2023-04-02T22:32:06.017Z,1.88
2023-04-02T22:35:08.520Z,1.33
2023-04-02T22:38:11.669Z,0.65
2023-04-02T22:41:16.470Z,0.90
2023-04-02T22:44:18.807Z,0.75
2023-04-02T22:47:20.482Z,0.80
2023-04-02T22:50:22.542Z,0.70
2023-04-02T22:53:28.356Z,0.80
2023-04-02T22:56:32.049Z,0.63
2023-04-02T22:59:34.082Z,0.75
2023-04-02T23:02:36.173Z,0.70
2023-04-02T23:05:38.381Z,0.70
2023-04-02T23:08:41.742Z,0.70
2023-04-02T23:11:44.684Z,0.70
2023-04-02T23:14:47.142Z,0.70
2023-04-02T23:17:48.873Z,0.60
2023-04-02T23:20:50.762Z,0.50
2023-04-02T23:23:54.629Z,0.45
2023-04-02T23:26:56.905Z,0.68
2023-04-02T23:29:58.710Z,0.60
2023-04-02T23:33:01.359Z,0.60
2023-04-02T23:36:07.771Z,0.70
2023-04-02T23:39:13.452Z,1.17
2023-04-02T23:42:15.936Z,0.77
2023-04-02T23:45:18.058Z,0.93
2023-04-02T23:48:19.749Z,0.73
2023-04-02T23:51:22.431Z,0.80
2023-04-02T23:54:33.118Z,0.40
2023-04-02T23:57:54.947Z,0.63
